Suehiro Maru No.8 — JK5423 — position and weather

sailwx.info

Track history (hours):
 
Tides and Currents Weather Stations Pressure Air Temp Water Temp Dewpoint Dewpoint Depression Visibility Wind Speed Wind Dir Waves Ship Positions

Suehiro Maru No.8

Last reported at 2016-Jul-28 06:17 UTC. Time now 2016-Jul-31 07:24 UTC.
Position N 34°05' E 134°49'.

Length 88 m; draft 3.4 m.

Type: Cargo ship. MMSI: 431400446.

Date/timePositionNaut miles runAvg speedWind from/ knotsBaromVisibWave heightAir tempDewpointWater temp
2016-Jul-28 06:17N 34°05' E 134°49'1012.9
2016-Jul-28 05:29N 33°57' E 134°57'23311.1
2016-Jul-27 08:32N 35°00' E 139°29'1212.1
2016-Jul-27 07:33N 35°07' E 139°42'1110.9
2016-Jul-27 06:34N 35°17' E 139°45'1010.4
2016-Jul-27 05:34N 35°28' E 139°47'10 9.9
2016-Jul-27 04:34N 35°37' E 139°49'0 0.1
2016-Jul-27 03:33N 35°37' E 139°49'0 0.0
2016-Jul-27 02:34N 35°37' E 139°49'0 0.0
2016-Jul-27 01:34N 35°37' E 139°49'0 0.0
2016-Jul-27 00:33N 35°37' E 139°49'0 0.0
2016-Jul-26 23:33N 35°37' E 139°49'0 0.0
2016-Jul-26 22:34N 35°37' E 139°49'4 3.5
2016-Jul-26 21:34N 35°35' E 139°52'0 0.1
2016-Jul-26 20:34N 35°35' E 139°52'0 0.0
2016-Jul-26 19:34N 35°35' E 139°52'0 0.0
2016-Jul-26 18:33N 35°35' E 139°52'0 0.0
2016-Jul-26 17:34N 35°35' E 139°52'0 0.0
2016-Jul-26 16:34N 35°35' E 139°52'0 0.0
2016-Jul-26 15:34N 35°35' E 139°52'0 0.0
2016-Jul-26 14:34N 35°35' E 139°52'0 0.0
2016-Jul-26 13:34N 35°35' E 139°52'0 0.0
2016-Jul-26 12:34N 35°35' E 139°52'0 0.0
2016-Jul-26 11:34N 35°35' E 139°52'8 8.5
2016-Jul-26 10:33N 35°27' E 139°49'1211.9
2016-Jul-26 09:33N 35°15' E 139°47'  
2016-Jul-23 08:08N 33°56' E 135°02'712.5
2016-Jul-23 07:33N 34°03' E 135°03'1111.6
2016-Jul-23 06:33N 34°14' E 135°06'0 0.2
2016-Jul-23 04:33N 34°15' E 135°07'0 0.0
2016-Jul-23 03:33N 34°15' E 135°07'0 0.0
2016-Jul-23 02:33N 34°15' E 135°07'0 0.0
2016-Jul-23 01:33N 34°15' E 135°07'0 0.0
2016-Jul-23 00:33N 34°15' E 135°07'0 0.0
2016-Jul-22 23:33N 34°15' E 135°07'0 0.0
2016-Jul-22 22:33N 34°15' E 135°07'0 0.0
2016-Jul-22 21:33N 34°15' E 135°07'0 0.0
2016-Jul-22 20:33N 34°15' E 135°07'0 0.0
2016-Jul-22 19:33N 34°15' E 135°07'0 0.0
2016-Jul-22 18:33N 34°15' E 135°07'0 0.0
2016-Jul-22 17:33N 34°15' E 135°07'0 0.0
2016-Jul-22 16:33N 34°15' E 135°07'3 2.9
2016-Jul-22 15:33N 34°14' E 135°03'23 1.1
2016-Jul-21 19:09N 34°34' E 134°49'610.5
2016-Jul-21 18:33N 34°36' E 134°56'8 8.2
2016-Jul-21 17:33N 34°34' E 135°05'1211.4
2016-Jul-21 16:32N 34°23' E 135°01'1110.8
2016-Jul-21 15:33N 34°13' E 134°60'  
Track history (hours):
 
Tides and Currents Weather Stations Pressure Air Temp Water Temp Dewpoint Dewpoint Depression Visibility Wind Speed Wind Dir Waves Ship Positions

Suehiro Maru No.8

Last reported at 2016-Jul-28 06:17 UTC. Time now 2016-Jul-31 07:24 UTC.
Position N 34°05' E 134°49'.

Length 88 m; draft 3.4 m.

Type: Cargo ship. MMSI: 431400446.

Date/timePositionNaut miles runAvg speedWind from/ knotsBaromVisibWave heightAir tempDewpointWater temp
2016-Jul-28 06:17N 34°05' E 134°49'1012.9
2016-Jul-28 05:29N 33°57' E 134°57'23311.1
2016-Jul-27 08:32N 35°00' E 139°29'1212.1
2016-Jul-27 07:33N 35°07' E 139°42'1110.9
2016-Jul-27 06:34N 35°17' E 139°45'1010.4
2016-Jul-27 05:34N 35°28' E 139°47'10 9.9
2016-Jul-27 04:34N 35°37' E 139°49'0 0.1
2016-Jul-27 03:33N 35°37' E 139°49'0 0.0
2016-Jul-27 02:34N 35°37' E 139°49'0 0.0
2016-Jul-27 01:34N 35°37' E 139°49'0 0.0
2016-Jul-27 00:33N 35°37' E 139°49'0 0.0
2016-Jul-26 23:33N 35°37' E 139°49'0 0.0
2016-Jul-26 22:34N 35°37' E 139°49'4 3.5
2016-Jul-26 21:34N 35°35' E 139°52'0 0.1
2016-Jul-26 20:34N 35°35' E 139°52'0 0.0
2016-Jul-26 19:34N 35°35' E 139°52'0 0.0
2016-Jul-26 18:33N 35°35' E 139°52'0 0.0
2016-Jul-26 17:34N 35°35' E 139°52'0 0.0
2016-Jul-26 16:34N 35°35' E 139°52'0 0.0
2016-Jul-26 15:34N 35°35' E 139°52'0 0.0
2016-Jul-26 14:34N 35°35' E 139°52'0 0.0
2016-Jul-26 13:34N 35°35' E 139°52'0 0.0
2016-Jul-26 12:34N 35°35' E 139°52'0 0.0
2016-Jul-26 11:34N 35°35' E 139°52'8 8.5
2016-Jul-26 10:33N 35°27' E 139°49'1211.9
2016-Jul-26 09:33N 35°15' E 139°47'  
2016-Jul-23 08:08N 33°56' E 135°02'712.5
2016-Jul-23 07:33N 34°03' E 135°03'1111.6
2016-Jul-23 06:33N 34°14' E 135°06'0 0.2
2016-Jul-23 04:33N 34°15' E 135°07'0 0.0
2016-Jul-23 03:33N 34°15' E 135°07'0 0.0
2016-Jul-23 02:33N 34°15' E 135°07'0 0.0
2016-Jul-23 01:33N 34°15' E 135°07'0 0.0
2016-Jul-23 00:33N 34°15' E 135°07'0 0.0
2016-Jul-22 23:33N 34°15' E 135°07'0 0.0
2016-Jul-22 22:33N 34°15' E 135°07'0 0.0
2016-Jul-22 21:33N 34°15' E 135°07'0 0.0
2016-Jul-22 20:33N 34°15' E 135°07'0 0.0
2016-Jul-22 19:33N 34°15' E 135°07'0 0.0
2016-Jul-22 18:33N 34°15' E 135°07'0 0.0
2016-Jul-22 17:33N 34°15' E 135°07'0 0.0
2016-Jul-22 16:33N 34°15' E 135°07'3 2.9
2016-Jul-22 15:33N 34°14' E 135°03'23 1.1
2016-Jul-21 19:09N 34°34' E 134°49'610.5
2016-Jul-21 18:33N 34°36' E 134°56'8 8.2
2016-Jul-21 17:33N 34°34' E 135°05'1211.4
2016-Jul-21 16:32N 34°23' E 135°01'1110.8
2016-Jul-21 15:33N 34°13' E 134°60'  

Dump ship's entire track history